Saint-Laurent, Canada
Current Conditions -  °F | °C
As of 9:00 PM on Friday 28 Nov 2014 (Local Time) from CYUL Reporting Station
Few Clouds Few Clouds  
Wind Chill: 11°   Ceiling: Unl
Heat Index: 19°   Visibility: 15mi
Dew Point:   Wind: 6mph
Humidity: 63%   Direction: 300°WNW
Pressure: 30.19"   Gusts: NA
Location:  45.52°N, 73.67°W
Report Text: CYUL 290200Z 30005KT 15SM FEW040 FEW240 M07/M13 A3019 RMK SC1CI1 SC TR SLP226
Loading
Personal Weather Stations






























Interactive Weather Map New forecast layout! Learn more

10-Day Weather Forecast

Advertisements
Track Severe Weather on mobile